sensor_id;sensor_type;location;lat;lon;timestamp;P1;durP1;ratioP1;P2;durP2;ratioP2
47151;SDS011;32906;48.542;12.136;2022-08-19T00:01:17;8.63;;;7.78;;
47151;SDS011;32906;48.542;12.136;2022-08-19T00:03:44;11.02;;;9.27;;
47151;SDS011;32906;48.542;12.136;2022-08-19T00:06:11;8.80;;;7.97;;
47151;SDS011;32906;48.542;12.136;2022-08-19T00:08:39;10.20;;;9.02;;
47151;SDS011;32906;48.542;12.136;2022-08-19T00:11:06;10.70;;;8.63;;
47151;SDS011;32906;48.542;12.136;2022-08-19T00:13:33;11.82;;;9.13;;
47151;SDS011;32906;48.542;12.136;2022-08-19T00:16:02;12.30;;;9.35;;
47151;SDS011;32906;48.542;12.136;2022-08-19T00:18:32;9.88;;;8.88;;
47151;SDS011;32906;48.542;12.136;2022-08-19T00:20:59;11.63;;;9.65;;
47151;SDS011;32906;48.542;12.136;2022-08-19T00:23:27;10.68;;;9.57;;
47151;SDS011;32906;48.542;12.136;2022-08-19T00:25:55;14.98;;;10.23;;
47151;SDS011;32906;48.542;12.136;2022-08-19T00:28:22;10.50;;;9.40;;
47151;SDS011;32906;48.542;12.136;2022-08-19T00:30:49;12.27;;;9.45;;
47151;SDS011;32906;48.542;12.136;2022-08-19T00:33:18;11.73;;;10.20;;
47151;SDS011;32906;48.542;12.136;2022-08-19T00:35:47;12.27;;;9.50;;
47151;SDS011;32906;48.542;12.136;2022-08-19T00:38:14;12.52;;;9.75;;
47151;SDS011;32906;48.542;12.136;2022-08-19T00:40:42;12.38;;;10.15;;
47151;SDS011;32906;48.542;12.136;2022-08-19T00:43:11;12.68;;;10.70;;
47151;SDS011;32906;48.542;12.136;2022-08-19T00:45:39;11.30;;;9.02;;
47151;SDS011;32906;48.542;12.136;2022-08-19T00:48:08;10.30;;;9.27;;
47151;SDS011;32906;48.542;12.136;2022-08-19T00:50:36;10.48;;;9.38;;
47151;SDS011;32906;48.542;12.136;2022-08-19T00:53:09;12.13;;;10.48;;
47151;SDS011;32906;48.542;12.136;2022-08-19T00:55:37;12.82;;;10.43;;
47151;SDS011;32906;48.542;12.136;2022-08-19T00:58:07;9.65;;;8.48;;
47151;SDS011;32906;48.542;12.136;2022-08-19T01:00:36;9.20;;;8.15;;
47151;SDS011;32906;48.542;12.136;2022-08-19T01:03:04;11.65;;;9.05;;
47151;SDS011;32906;48.542;12.136;2022-08-19T01:05:32;13.18;;;8.65;;
47151;SDS011;32906;48.542;12.136;2022-08-19T01:08:00;8.95;;;8.05;;
47151;SDS011;32906;48.542;12.136;2022-08-19T01:10:31;9.50;;;7.18;;
47151;SDS011;32906;48.542;12.136;2022-08-19T01:12:59;7.05;;;6.47;;
47151;SDS011;32906;48.542;12.136;2022-08-19T01:15:29;11.13;;;8.48;;
47151;SDS011;32906;48.542;12.136;2022-08-19T01:17:57;10.48;;;8.57;;
47151;SDS011;32906;48.542;12.136;2022-08-19T01:20:26;10.63;;;9.50;;
47151;SDS011;32906;48.542;12.136;2022-08-19T01:22:56;10.60;;;8.38;;
47151;SDS011;32906;48.542;12.136;2022-08-19T01:25:28;9.80;;;8.80;;
47151;SDS011;32906;48.542;12.136;2022-08-19T01:27:56;9.18;;;7.68;;
47151;SDS011;32906;48.542;12.136;2022-08-19T01:30:25;9.25;;;8.35;;
47151;SDS011;32906;48.542;12.136;2022-08-19T01:32:53;11.73;;;8.00;;
47151;SDS011;32906;48.542;12.136;2022-08-19T01:35:21;8.00;;;7.20;;
47151;SDS011;32906;48.542;12.136;2022-08-19T01:37:51;7.93;;;6.45;;
47151;SDS011;32906;48.542;12.136;2022-08-19T01:40:20;6.80;;;5.72;;
47151;SDS011;32906;48.542;12.136;2022-08-19T01:42:48;7.35;;;6.55;;
47151;SDS011;32906;48.542;12.136;2022-08-19T01:45:16;10.30;;;7.28;;
47151;SDS011;32906;48.542;12.136;2022-08-19T01:47:43;7.50;;;6.13;;
47151;SDS011;32906;48.542;12.136;2022-08-19T01:50:11;7.53;;;6.05;;
47151;SDS011;32906;48.542;12.136;2022-08-19T01:52:40;7.53;;;6.25;;
47151;SDS011;32906;48.542;12.136;2022-08-19T01:55:08;9.00;;;6.70;;
47151;SDS011;32906;48.542;12.136;2022-08-19T01:57:38;7.40;;;6.70;;
47151;SDS011;32906;48.542;12.136;2022-08-19T02:00:06;8.90;;;6.35;;
47151;SDS011;32906;48.542;12.136;2022-08-19T02:02:38;11.48;;;7.32;;
47151;SDS011;32906;48.542;12.136;2022-08-19T02:05:06;8.65;;;6.72;;
47151;SDS011;32906;48.542;12.136;2022-08-19T02:07:33;6.82;;;5.60;;
47151;SDS011;32906;48.542;12.136;2022-08-19T02:10:02;6.63;;;5.85;;
47151;SDS011;32906;48.542;12.136;2022-08-19T02:12:29;7.05;;;5.68;;
47151;SDS011;32906;48.542;12.136;2022-08-19T02:14:58;8.50;;;6.47;;
47151;SDS011;32906;48.542;12.136;2022-08-19T02:17:26;9.15;;;6.85;;
47151;SDS011;32906;48.542;12.136;2022-08-19T02:19:54;8.57;;;6.03;;
47151;SDS011;32906;48.542;12.136;2022-08-19T02:22:21;5.88;;;5.25;;
47151;SDS011;32906;48.542;12.136;2022-08-19T02:24:50;6.88;;;6.05;;
47151;SDS011;32906;48.542;12.136;2022-08-19T02:27:18;9.65;;;5.20;;
47151;SDS011;32906;48.542;12.136;2022-08-19T02:29:45;8.75;;;5.78;;
47151;SDS011;32906;48.542;12.136;2022-08-19T02:32:15;8.23;;;6.65;;
47151;SDS011;32906;48.542;12.136;2022-08-19T02:34:43;7.45;;;6.32;;
47151;SDS011;32906;48.542;12.136;2022-08-19T02:37:11;8.43;;;7.50;;
47151;SDS011;32906;48.542;12.136;2022-08-19T02:39:52;7.60;;;6.57;;
47151;SDS011;32906;48.542;12.136;2022-08-19T02:42:19;7.88;;;6.90;;
47151;SDS011;32906;48.542;12.136;2022-08-19T02:44:46;7.68;;;6.70;;
47151;SDS011;32906;48.542;12.136;2022-08-19T02:47:15;9.18;;;7.75;;
47151;SDS011;32906;48.542;12.136;2022-08-19T02:49:43;6.68;;;6.03;;
47151;SDS011;32906;48.542;12.136;2022-08-19T02:52:11;10.00;;;6.68;;
47151;SDS011;32906;48.542;12.136;2022-08-19T02:54:39;8.55;;;6.78;;
47151;SDS011;32906;48.542;12.136;2022-08-19T02:57:06;8.68;;;7.40;;
47151;SDS011;32906;48.542;12.136;2022-08-19T02:59:33;9.57;;;7.60;;
47151;SDS011;32906;48.542;12.136;2022-08-19T03:02:01;7.45;;;6.50;;
47151;SDS011;32906;48.542;12.136;2022-08-19T03:04:29;8.90;;;6.97;;
47151;SDS011;32906;48.542;12.136;2022-08-19T03:06:57;11.60;;;6.95;;
47151;SDS011;32906;48.542;12.136;2022-08-19T03:09:24;10.70;;;6.43;;
47151;SDS011;32906;48.542;12.136;2022-08-19T03:11:51;9.05;;;6.80;;
47151;SDS011;32906;48.542;12.136;2022-08-19T03:14:18;8.60;;;7.38;;
47151;SDS011;32906;48.542;12.136;2022-08-19T03:16:47;11.68;;;6.57;;
47151;SDS011;32906;48.542;12.136;2022-08-19T03:19:15;9.15;;;7.32;;
47151;SDS011;32906;48.542;12.136;2022-08-19T03:21:44;7.55;;;6.30;;
47151;SDS011;32906;48.542;12.136;2022-08-19T03:24:12;5.80;;;4.75;;
47151;SDS011;32906;48.542;12.136;2022-08-19T03:26:40;7.85;;;5.45;;
47151;SDS011;32906;48.542;12.136;2022-08-19T03:29:08;6.50;;;5.57;;
47151;SDS011;32906;48.542;12.136;2022-08-19T03:31:36;7.65;;;5.85;;
47151;SDS011;32906;48.542;12.136;2022-08-19T03:34:03;7.72;;;6.10;;
47151;SDS011;32906;48.542;12.136;2022-08-19T03:36:31;7.70;;;6.13;;
47151;SDS011;32906;48.542;12.136;2022-08-19T03:39:00;9.02;;;5.40;;
47151;SDS011;32906;48.542;12.136;2022-08-19T03:41:28;6.13;;;4.95;;
47151;SDS011;32906;48.542;12.136;2022-08-19T03:43:56;7.63;;;5.50;;
47151;SDS011;32906;48.542;12.136;2022-08-19T03:46:25;7.72;;;5.78;;
47151;SDS011;32906;48.542;12.136;2022-08-19T03:48:53;6.45;;;4.75;;
47151;SDS011;32906;48.542;12.136;2022-08-19T03:51:22;7.65;;;5.90;;
47151;SDS011;32906;48.542;12.136;2022-08-19T03:53:49;6.88;;;5.43;;
47151;SDS011;32906;48.542;12.136;2022-08-19T03:56:18;5.80;;;4.85;;
47151;SDS011;32906;48.542;12.136;2022-08-19T03:58:46;5.28;;;4.78;;
47151;SDS011;32906;48.542;12.136;2022-08-19T04:01:14;5.38;;;4.75;;
47151;SDS011;32906;48.542;12.136;2022-08-19T04:03:42;6.65;;;5.05;;
47151;SDS011;32906;48.542;12.136;2022-08-19T04:06:11;5.28;;;4.15;;
47151;SDS011;32906;48.542;12.136;2022-08-19T04:08:39;5.72;;;4.53;;
47151;SDS011;32906;48.542;12.136;2022-08-19T04:11:07;6.18;;;4.38;;
47151;SDS011;32906;48.542;12.136;2022-08-19T04:13:36;5.40;;;4.82;;
47151;SDS011;32906;48.542;12.136;2022-08-19T04:16:03;4.88;;;4.38;;
47151;SDS011;32906;48.542;12.136;2022-08-19T04:18:31;6.03;;;4.80;;
47151;SDS011;32906;48.542;12.136;2022-08-19T04:20:59;3.85;;;3.45;;
47151;SDS011;32906;48.542;12.136;2022-08-19T04:23:26;4.93;;;3.80;;
47151;SDS011;32906;48.542;12.136;2022-08-19T04:25:54;4.75;;;4.25;;
47151;SDS011;32906;48.542;12.136;2022-08-19T04:28:22;4.63;;;3.88;;
47151;SDS011;32906;48.542;12.136;2022-08-19T04:30:51;6.53;;;3.25;;
47151;SDS011;32906;48.542;12.136;2022-08-19T04:33:25;4.65;;;3.40;;
47151;SDS011;32906;48.542;12.136;2022-08-19T04:35:53;3.50;;;3.20;;
47151;SDS011;32906;48.542;12.136;2022-08-19T04:38:23;3.53;;;3.20;;
47151;SDS011;32906;48.542;12.136;2022-08-19T04:40:51;4.15;;;3.72;;
47151;SDS011;32906;48.542;12.136;2022-08-19T04:43:37;5.47;;;3.88;;
47151;SDS011;32906;48.542;12.136;2022-08-19T04:46:06;4.80;;;4.28;;
47151;SDS011;32906;48.542;12.136;2022-08-19T04:48:34;3.75;;;3.15;;
47151;SDS011;32906;48.542;12.136;2022-08-19T04:51:04;3.67;;;3.33;;
47151;SDS011;32906;48.542;12.136;2022-08-19T04:53:33;3.63;;;3.30;;
47151;SDS011;32906;48.542;12.136;2022-08-19T04:56:03;4.45;;;3.47;;
47151;SDS011;32906;48.542;12.136;2022-08-19T04:58:32;3.95;;;3.25;;
47151;SDS011;32906;48.542;12.136;2022-08-19T05:00:59;6.80;;;3.30;;
47151;SDS011;32906;48.542;12.136;2022-08-19T05:03:28;4.13;;;3.38;;
47151;SDS011;32906;48.542;12.136;2022-08-19T05:05:58;4.07;;;2.90;;
47151;SDS011;32906;48.542;12.136;2022-08-19T05:08:26;4.22;;;2.83;;
47151;SDS011;32906;48.542;12.136;2022-08-19T05:10:53;3.58;;;2.97;;
47151;SDS011;32906;48.542;12.136;2022-08-19T05:13:22;4.32;;;2.65;;
47151;SDS011;32906;48.542;12.136;2022-08-19T05:15:53;3.30;;;2.63;;
47151;SDS011;32906;48.542;12.136;2022-08-19T05:18:20;4.60;;;2.95;;
47151;SDS011;32906;48.542;12.136;2022-08-19T05:21:08;2.85;;;2.47;;
47151;SDS011;32906;48.542;12.136;2022-08-19T05:23:53;3.70;;;3.40;;
47151;SDS011;32906;48.542;12.136;2022-08-19T05:26:20;3.08;;;2.63;;
47151;SDS011;32906;48.542;12.136;2022-08-19T05:28:47;4.05;;;2.72;;
47151;SDS011;32906;48.542;12.136;2022-08-19T05:31:14;2.70;;;2.50;;
47151;SDS011;32906;48.542;12.136;2022-08-19T05:33:41;3.35;;;2.25;;
47151;SDS011;32906;48.542;12.136;2022-08-19T05:36:10;3.25;;;2.50;;
47151;SDS011;32906;48.542;12.136;2022-08-19T05:38:38;2.33;;;1.67;;
47151;SDS011;32906;48.542;12.136;2022-08-19T05:41:06;3.15;;;2.50;;
47151;SDS011;32906;48.542;12.136;2022-08-19T05:43:33;4.30;;;3.10;;
47151;SDS011;32906;48.542;12.136;2022-08-19T05:46:01;3.05;;;2.30;;
47151;SDS011;32906;48.542;12.136;2022-08-19T05:48:29;2.17;;;1.88;;
47151;SDS011;32906;48.542;12.136;2022-08-19T05:50:56;3.13;;;2.15;;
47151;SDS011;32906;48.542;12.136;2022-08-19T05:53:26;3.72;;;1.88;;
47151;SDS011;32906;48.542;12.136;2022-08-19T05:55:53;2.58;;;2.38;;
47151;SDS011;32906;48.542;12.136;2022-08-19T05:58:20;3.03;;;2.50;;
47151;SDS011;32906;48.542;12.136;2022-08-19T06:00:49;2.67;;;2.15;;
47151;SDS011;32906;48.542;12.136;2022-08-19T06:03:16;3.22;;;1.50;;
47151;SDS011;32906;48.542;12.136;2022-08-19T06:05:43;4.13;;;3.33;;
47151;SDS011;32906;48.542;12.136;2022-08-19T06:08:11;2.50;;;2.00;;
47151;SDS011;32906;48.542;12.136;2022-08-19T06:10:39;4.93;;;2.85;;
47151;SDS011;32906;48.542;12.136;2022-08-19T06:13:06;6.40;;;3.08;;
47151;SDS011;32906;48.542;12.136;2022-08-19T06:15:34;4.30;;;2.67;;
47151;SDS011;32906;48.542;12.136;2022-08-19T06:18:01;3.03;;;2.38;;
47151;SDS011;32906;48.542;12.136;2022-08-19T06:20:28;3.70;;;2.63;;
47151;SDS011;32906;48.542;12.136;2022-08-19T06:22:57;3.25;;;2.53;;
47151;SDS011;32906;48.542;12.136;2022-08-19T06:25:24;4.10;;;2.55;;
47151;SDS011;32906;48.542;12.136;2022-08-19T06:27:53;2.78;;;2.50;;
47151;SDS011;32906;48.542;12.136;2022-08-19T06:30:20;2.83;;;2.28;;
47151;SDS011;32906;48.542;12.136;2022-08-19T06:32:47;2.60;;;1.83;;
47151;SDS011;32906;48.542;12.136;2022-08-19T06:35:15;2.78;;;2.47;;
47151;SDS011;32906;48.542;12.136;2022-08-19T06:37:42;2.42;;;2.17;;
47151;SDS011;32906;48.542;12.136;2022-08-19T06:40:10;2.75;;;1.77;;
47151;SDS011;32906;48.542;12.136;2022-08-19T06:42:37;2.75;;;2.28;;
47151;SDS011;32906;48.542;12.136;2022-08-19T06:45:07;3.50;;;2.33;;
47151;SDS011;32906;48.542;12.136;2022-08-19T06:47:34;2.95;;;2.65;;
47151;SDS011;32906;48.542;12.136;2022-08-19T06:50:01;3.28;;;2.05;;
47151;SDS011;32906;48.542;12.136;2022-08-19T06:52:30;9.15;;;3.25;;
47151;SDS011;32906;48.542;12.136;2022-08-19T06:54:58;3.72;;;2.88;;
47151;SDS011;32906;48.542;12.136;2022-08-19T06:57:25;3.80;;;3.03;;
47151;SDS011;32906;48.542;12.136;2022-08-19T06:59:53;5.63;;;2.60;;
47151;SDS011;32906;48.542;12.136;2022-08-19T07:02:23;3.13;;;2.67;;
47151;SDS011;32906;48.542;12.136;2022-08-19T07:04:51;4.43;;;2.38;;
47151;SDS011;32906;48.542;12.136;2022-08-19T07:07:19;4.57;;;3.40;;
47151;SDS011;32906;48.542;12.136;2022-08-19T07:09:48;4.22;;;3.08;;
47151;SDS011;32906;48.542;12.136;2022-08-19T07:12:15;5.47;;;3.95;;
47151;SDS011;32906;48.542;12.136;2022-08-19T07:14:42;2.95;;;2.50;;
47151;SDS011;32906;48.542;12.136;2022-08-19T07:17:11;3.97;;;3.33;;
47151;SDS011;32906;48.542;12.136;2022-08-19T07:19:40;4.22;;;3.17;;
47151;SDS011;32906;48.542;12.136;2022-08-19T07:22:08;4.20;;;3.67;;
47151;SDS011;32906;48.542;12.136;2022-08-19T07:24:36;4.82;;;3.47;;
47151;SDS011;32906;48.542;12.136;2022-08-19T07:27:04;4.05;;;3.47;;
47151;SDS011;32906;48.542;12.136;2022-08-19T07:29:33;5.03;;;2.53;;
47151;SDS011;32906;48.542;12.136;2022-08-19T07:32:01;4.25;;;3.05;;
47151;SDS011;32906;48.542;12.136;2022-08-19T07:34:29;4.57;;;3.85;;
47151;SDS011;32906;48.542;12.136;2022-08-19T07:37:00;4.25;;;2.95;;
47151;SDS011;32906;48.542;12.136;2022-08-19T07:39:30;7.88;;;5.43;;
47151;SDS011;32906;48.542;12.136;2022-08-19T07:41:58;10.05;;;5.35;;
47151;SDS011;32906;48.542;12.136;2022-08-19T07:44:26;6.53;;;4.50;;
47151;SDS011;32906;48.542;12.136;2022-08-19T07:46:54;5.70;;;5.10;;
47151;SDS011;32906;48.542;12.136;2022-08-19T07:49:22;7.22;;;5.28;;
47151;SDS011;32906;48.542;12.136;2022-08-19T07:51:50;6.63;;;4.78;;
47151;SDS011;32906;48.542;12.136;2022-08-19T07:54:20;5.93;;;3.97;;
47151;SDS011;32906;48.542;12.136;2022-08-19T07:56:47;5.85;;;4.50;;
47151;SDS011;32906;48.542;12.136;2022-08-19T07:59:16;6.20;;;5.28;;
47151;SDS011;32906;48.542;12.136;2022-08-19T08:01:43;4.18;;;3.78;;
47151;SDS011;32906;48.542;12.136;2022-08-19T08:04:11;6.55;;;4.47;;
47151;SDS011;32906;48.542;12.136;2022-08-19T08:06:59;3.67;;;2.97;;
47151;SDS011;32906;48.542;12.136;2022-08-19T08:09:45;5.85;;;5.25;;
47151;SDS011;32906;48.542;12.136;2022-08-19T08:12:13;4.13;;;3.58;;
47151;SDS011;32906;48.542;12.136;2022-08-19T08:14:42;7.72;;;5.90;;
47151;SDS011;32906;48.542;12.136;2022-08-19T08:17:10;4.55;;;3.65;;
47151;SDS011;32906;48.542;12.136;2022-08-19T08:19:39;7.25;;;5.20;;
47151;SDS011;32906;48.542;12.136;2022-08-19T08:22:07;4.90;;;3.90;;
47151;SDS011;32906;48.542;12.136;2022-08-19T08:24:56;7.22;;;5.10;;
47151;SDS011;32906;48.542;12.136;2022-08-19T08:27:24;5.45;;;4.85;;
47151;SDS011;32906;48.542;12.136;2022-08-19T08:29:54;9.98;;;6.05;;
47151;SDS011;32906;48.542;12.136;2022-08-19T08:32:21;6.68;;;4.88;;
47151;SDS011;32906;48.542;12.136;2022-08-19T08:34:48;7.05;;;5.43;;
47151;SDS011;32906;48.542;12.136;2022-08-19T08:37:16;9.63;;;7.70;;
47151;SDS011;32906;48.542;12.136;2022-08-19T08:39:43;9.38;;;8.18;;
47151;SDS011;32906;48.542;12.136;2022-08-19T08:42:12;10.30;;;8.35;;
47151;SDS011;32906;48.542;12.136;2022-08-19T08:44:43;10.48;;;7.78;;
47151;SDS011;32906;48.542;12.136;2022-08-19T08:47:16;11.52;;;9.52;;
47151;SDS011;32906;48.542;12.136;2022-08-19T08:49:46;15.18;;;11.50;;
47151;SDS011;32906;48.542;12.136;2022-08-19T08:52:16;14.23;;;10.65;;
47151;SDS011;32906;48.542;12.136;2022-08-19T08:54:46;12.30;;;9.80;;
47151;SDS011;32906;48.542;12.136;2022-08-19T08:57:15;14.98;;;12.48;;
47151;SDS011;32906;48.542;12.136;2022-08-19T08:59:45;17.88;;;13.07;;
47151;SDS011;32906;48.542;12.136;2022-08-19T09:02:15;15.68;;;12.32;;
47151;SDS011;32906;48.542;12.136;2022-08-19T09:04:43;10.55;;;8.70;;
47151;SDS011;32906;48.542;12.136;2022-08-19T09:07:14;12.15;;;9.60;;
47151;SDS011;32906;48.542;12.136;2022-08-19T09:09:45;10.32;;;7.30;;
47151;SDS011;32906;48.542;12.136;2022-08-19T09:12:16;9.95;;;6.97;;
47151;SDS011;32906;48.542;12.136;2022-08-19T09:14:48;9.13;;;7.00;;
47151;SDS011;32906;48.542;12.136;2022-08-19T09:17:17;10.27;;;7.22;;
47151;SDS011;32906;48.542;12.136;2022-08-19T09:19:52;10.63;;;8.13;;
47151;SDS011;32906;48.542;12.136;2022-08-19T09:22:19;8.82;;;6.78;;
47151;SDS011;32906;48.542;12.136;2022-08-19T09:24:48;7.80;;;6.47;;
47151;SDS011;32906;48.542;12.136;2022-08-19T09:27:16;6.78;;;6.05;;
47151;SDS011;32906;48.542;12.136;2022-08-19T09:29:44;11.30;;;7.93;;
47151;SDS011;32906;48.542;12.136;2022-08-19T09:32:13;10.15;;;7.68;;
47151;SDS011;32906;48.542;12.136;2022-08-19T09:34:40;13.02;;;7.95;;
47151;SDS011;32906;48.542;12.136;2022-08-19T09:37:08;11.63;;;6.68;;
47151;SDS011;32906;48.542;12.136;2022-08-19T09:39:35;12.75;;;7.80;;
47151;SDS011;32906;48.542;12.136;2022-08-19T09:42:04;10.02;;;6.68;;
47151;SDS011;32906;48.542;12.136;2022-08-19T09:44:36;10.00;;;6.70;;
47151;SDS011;32906;48.542;12.136;2022-08-19T09:47:04;10.63;;;7.25;;
47151;SDS011;32906;48.542;12.136;2022-08-19T09:49:32;15.30;;;7.75;;
47151;SDS011;32906;48.542;12.136;2022-08-19T09:51:59;10.50;;;7.07;;
47151;SDS011;32906;48.542;12.136;2022-08-19T09:54:27;9.40;;;7.55;;
47151;SDS011;32906;48.542;12.136;2022-08-19T09:56:55;11.70;;;7.65;;
47151;SDS011;32906;48.542;12.136;2022-08-19T09:59:22;8.52;;;7.22;;
47151;SDS011;32906;48.542;12.136;2022-08-19T10:01:51;11.73;;;8.40;;
47151;SDS011;32906;48.542;12.136;2022-08-19T10:04:18;10.95;;;7.43;;
47151;SDS011;32906;48.542;12.136;2022-08-19T10:06:47;9.65;;;8.13;;
47151;SDS011;32906;48.542;12.136;2022-08-19T10:09:16;10.48;;;7.90;;
47151;SDS011;32906;48.542;12.136;2022-08-19T10:11:44;9.85;;;7.45;;
47151;SDS011;32906;48.542;12.136;2022-08-19T10:14:15;9.77;;;7.30;;
47151;SDS011;32906;48.542;12.136;2022-08-19T10:16:47;9.80;;;8.13;;
47151;SDS011;32906;48.542;12.136;2022-08-19T10:19:15;9.70;;;7.60;;
47151;SDS011;32906;48.542;12.136;2022-08-19T10:21:45;12.63;;;8.38;;
47151;SDS011;32906;48.542;12.136;2022-08-19T10:24:12;9.80;;;8.00;;
47151;SDS011;32906;48.542;12.136;2022-08-19T10:26:40;9.10;;;6.70;;
47151;SDS011;32906;48.542;12.136;2022-08-19T10:29:10;10.45;;;7.72;;
47151;SDS011;32906;48.542;12.136;2022-08-19T10:31:37;8.40;;;7.00;;
47151;SDS011;32906;48.542;12.136;2022-08-19T10:34:04;8.25;;;7.20;;
47151;SDS011;32906;48.542;12.136;2022-08-19T10:36:34;8.85;;;7.10;;
47151;SDS011;32906;48.542;12.136;2022-08-19T10:39:03;8.90;;;8.00;;
47151;SDS011;32906;48.542;12.136;2022-08-19T10:41:31;7.85;;;7.10;;
47151;SDS011;32906;48.542;12.136;2022-08-19T10:43:59;8.43;;;7.47;;
47151;SDS011;32906;48.542;12.136;2022-08-19T10:46:27;10.00;;;7.63;;
47151;SDS011;32906;48.542;12.136;2022-08-19T10:48:56;10.63;;;7.47;;
47151;SDS011;32906;48.542;12.136;2022-08-19T10:51:23;8.38;;;6.90;;
47151;SDS011;32906;48.542;12.136;2022-08-19T10:56:48;11.43;;;9.15;;
47151;SDS011;32906;48.542;12.136;2022-08-19T10:59:19;10.20;;;8.65;;
47151;SDS011;32906;48.542;12.136;2022-08-19T11:01:47;13.00;;;10.15;;
47151;SDS011;32906;48.542;12.136;2022-08-19T11:04:14;10.95;;;7.85;;
47151;SDS011;32906;48.542;12.136;2022-08-19T11:06:43;12.95;;;9.15;;
47151;SDS011;32906;48.542;12.136;2022-08-19T11:09:12;10.43;;;9.02;;
47151;SDS011;32906;48.542;12.136;2022-08-19T11:11:40;8.38;;;7.47;;
47151;SDS011;32906;48.542;12.136;2022-08-19T11:14:09;11.32;;;9.05;;
47151;SDS011;32906;48.542;12.136;2022-08-19T11:16:38;12.07;;;10.00;;
47151;SDS011;32906;48.542;12.136;2022-08-19T11:19:06;11.32;;;8.30;;
47151;SDS011;32906;48.542;12.136;2022-08-19T11:21:35;11.93;;;7.57;;
47151;SDS011;32906;48.542;12.136;2022-08-19T11:24:03;10.27;;;9.07;;
47151;SDS011;32906;48.542;12.136;2022-08-19T11:26:31;12.05;;;9.68;;
47151;SDS011;32906;48.542;12.136;2022-08-19T11:29:00;10.65;;;8.52;;
47151;SDS011;32906;48.542;12.136;2022-08-19T11:31:29;12.68;;;9.88;;
47151;SDS011;32906;48.542;12.136;2022-08-19T11:33:57;9.40;;;7.28;;
47151;SDS011;32906;48.542;12.136;2022-08-19T11:36:25;10.85;;;9.43;;
47151;SDS011;32906;48.542;12.136;2022-08-19T11:38:53;9.25;;;7.32;;
47151;SDS011;32906;48.542;12.136;2022-08-19T11:41:22;9.88;;;8.07;;
47151;SDS011;32906;48.542;12.136;2022-08-19T11:43:49;6.65;;;5.63;;
47151;SDS011;32906;48.542;12.136;2022-08-19T11:46:18;7.60;;;6.60;;
47151;SDS011;32906;48.542;12.136;2022-08-19T11:48:46;6.95;;;6.25;;
47151;SDS011;32906;48.542;12.136;2022-08-19T11:51:15;7.00;;;5.53;;
47151;SDS011;32906;48.542;12.136;2022-08-19T11:53:43;7.88;;;4.43;;
47151;SDS011;32906;48.542;12.136;2022-08-19T11:56:11;4.38;;;3.97;;
47151;SDS011;32906;48.542;12.136;2022-08-19T11:58:38;4.72;;;4.20;;
47151;SDS011;32906;48.542;12.136;2022-08-19T12:01:07;3.42;;;3.13;;
47151;SDS011;32906;48.542;12.136;2022-08-19T12:03:36;4.25;;;3.67;;
47151;SDS011;32906;48.542;12.136;2022-08-19T12:06:06;4.13;;;3.72;;
47151;SDS011;32906;48.542;12.136;2022-08-19T12:08:34;4.05;;;3.17;;
47151;SDS011;32906;48.542;12.136;2022-08-19T12:11:01;4.60;;;4.15;;
47151;SDS011;32906;48.542;12.136;2022-08-19T12:13:28;5.15;;;3.20;;
47151;SDS011;32906;48.542;12.136;2022-08-19T12:15:56;4.68;;;3.80;;
47151;SDS011;32906;48.542;12.136;2022-08-19T12:18:23;3.92;;;3.10;;
47151;SDS011;32906;48.542;12.136;2022-08-19T12:20:51;3.92;;;3.53;;
47151;SDS011;32906;48.542;12.136;2022-08-19T12:23:20;5.05;;;4.50;;
47151;SDS011;32906;48.542;12.136;2022-08-19T12:25:48;6.47;;;5.88;;
47151;SDS011;32906;48.542;12.136;2022-08-19T12:28:17;5.55;;;5.05;;
47151;SDS011;32906;48.542;12.136;2022-08-19T12:30:44;5.22;;;4.68;;
47151;SDS011;32906;48.542;12.136;2022-08-19T12:33:11;7.63;;;6.53;;
47151;SDS011;32906;48.542;12.136;2022-08-19T12:35:40;8.75;;;6.43;;
47151;SDS011;32906;48.542;12.136;2022-08-19T12:38:07;7.53;;;5.43;;
47151;SDS011;32906;48.542;12.136;2022-08-19T12:40:36;5.85;;;5.07;;
47151;SDS011;32906;48.542;12.136;2022-08-19T12:43:05;6.30;;;5.18;;
47151;SDS011;32906;48.542;12.136;2022-08-19T12:45:32;6.25;;;5.18;;
47151;SDS011;32906;48.542;12.136;2022-08-19T12:48:00;5.05;;;4.55;;
47151;SDS011;32906;48.542;12.136;2022-08-19T12:50:28;7.03;;;5.40;;
47151;SDS011;32906;48.542;12.136;2022-08-19T12:52:55;6.65;;;5.88;;
47151;SDS011;32906;48.542;12.136;2022-08-19T12:55:23;6.15;;;5.13;;
47151;SDS011;32906;48.542;12.136;2022-08-19T12:57:54;5.90;;;5.30;;
47151;SDS011;32906;48.542;12.136;2022-08-19T13:00:22;5.10;;;4.55;;
47151;SDS011;32906;48.542;12.136;2022-08-19T13:02:50;5.70;;;4.93;;
47151;SDS011;32906;48.542;12.136;2022-08-19T13:05:18;5.47;;;4.72;;
47151;SDS011;32906;48.542;12.136;2022-08-19T13:07:47;5.68;;;4.95;;
47151;SDS011;32906;48.542;12.136;2022-08-19T13:10:16;5.50;;;4.35;;
47151;SDS011;32906;48.542;12.136;2022-08-19T13:12:45;5.07;;;4.45;;
47151;SDS011;32906;48.542;12.136;2022-08-19T13:15:14;4.47;;;3.83;;
47151;SDS011;32906;48.542;12.136;2022-08-19T13:17:46;5.15;;;3.92;;
47151;SDS011;32906;48.542;12.136;2022-08-19T13:20:14;6.47;;;4.78;;
47151;SDS011;32906;48.542;12.136;2022-08-19T13:22:42;4.57;;;3.83;;
47151;SDS011;32906;48.542;12.136;2022-08-19T13:25:10;7.22;;;3.85;;
47151;SDS011;32906;48.542;12.136;2022-08-19T13:27:37;8.00;;;5.18;;
47151;SDS011;32906;48.542;12.136;2022-08-19T13:30:06;7.03;;;4.72;;
47151;SDS011;32906;48.542;12.136;2022-08-19T13:32:53;5.60;;;4.13;;
47151;SDS011;32906;48.542;12.136;2022-08-19T13:35:40;7.75;;;5.05;;
47151;SDS011;32906;48.542;12.136;2022-08-19T13:38:08;8.90;;;4.25;;
47151;SDS011;32906;48.542;12.136;2022-08-19T13:40:35;7.63;;;4.80;;
47151;SDS011;32906;48.542;12.136;2022-08-19T13:43:03;5.25;;;4.05;;
47151;SDS011;32906;48.542;12.136;2022-08-19T13:45:31;4.63;;;3.38;;
47151;SDS011;32906;48.542;12.136;2022-08-19T13:48:01;3.70;;;2.85;;
47151;SDS011;32906;48.542;12.136;2022-08-19T13:50:29;4.20;;;3.33;;
47151;SDS011;32906;48.542;12.136;2022-08-19T13:52:57;3.47;;;2.95;;
47151;SDS011;32906;48.542;12.136;2022-08-19T13:55:24;3.35;;;3.05;;
47151;SDS011;32906;48.542;12.136;2022-08-19T13:57:52;5.43;;;3.30;;
47151;SDS011;32906;48.542;12.136;2022-08-19T14:00:20;4.55;;;3.85;;
47151;SDS011;32906;48.542;12.136;2022-08-19T14:02:50;4.60;;;3.25;;
47151;SDS011;32906;48.542;12.136;2022-08-19T14:05:19;5.68;;;3.47;;
47151;SDS011;32906;48.542;12.136;2022-08-19T14:07:46;3.85;;;3.25;;
47151;SDS011;32906;48.542;12.136;2022-08-19T14:10:14;3.00;;;2.70;;
47151;SDS011;32906;48.542;12.136;2022-08-19T14:12:41;3.83;;;2.85;;
47151;SDS011;32906;48.542;12.136;2022-08-19T14:15:09;5.28;;;3.40;;
47151;SDS011;32906;48.542;12.136;2022-08-19T14:17:37;4.45;;;2.80;;
47151;SDS011;32906;48.542;12.136;2022-08-19T14:20:05;3.63;;;3.28;;
47151;SDS011;32906;48.542;12.136;2022-08-19T14:22:35;4.03;;;3.63;;
47151;SDS011;32906;48.542;12.136;2022-08-19T14:25:03;5.05;;;3.20;;
47151;SDS011;32906;48.542;12.136;2022-08-19T14:27:32;4.60;;;3.25;;
47151;SDS011;32906;48.542;12.136;2022-08-19T14:29:59;4.45;;;3.22;;
47151;SDS011;32906;48.542;12.136;2022-08-19T14:32:27;4.53;;;3.33;;
47151;SDS011;32906;48.542;12.136;2022-08-19T14:34:54;3.95;;;3.22;;
47151;SDS011;32906;48.542;12.136;2022-08-19T14:37:21;3.97;;;3.53;;
47151;SDS011;32906;48.542;12.136;2022-08-19T14:39:50;3.28;;;3.03;;
47151;SDS011;32906;48.542;12.136;2022-08-19T14:42:17;4.03;;;3.63;;